sensor_id;sensor_type;location;lat;lon;timestamp;pressure;altitude;pressure_sealevel;temperature;humidity
65054;BME280;51639;47.828;35.038;2023-07-08T00:13:28;99338.31;;;28.92;100.00
65054;BME280;51639;47.828;35.038;2023-07-08T00:28:30;99337.19;;;28.87;100.00
65054;BME280;51639;47.828;35.038;2023-07-08T00:43:38;99303.69;;;28.79;100.00
65054;BME280;51639;47.828;35.038;2023-07-08T00:58:48;99262.94;;;28.76;100.00
65054;BME280;51639;47.828;35.038;2023-07-08T01:13:51;99254.97;;;28.65;100.00
65054;BME280;51639;47.828;35.038;2023-07-08T01:28:53;99251.00;;;28.83;100.00
65054;BME280;51639;47.828;35.038;2023-07-08T01:43:56;99237.84;;;28.61;100.00
65054;BME280;51639;47.828;35.038;2023-07-08T01:58:58;99236.34;;;28.60;100.00
65054;BME280;51639;47.828;35.038;2023-07-08T02:14:00;99235.59;;;28.67;100.00
65054;BME280;51639;47.828;35.038;2023-07-08T02:29:03;99247.41;;;28.50;100.00
65054;BME280;51639;47.828;35.038;2023-07-08T02:44:05;99223.88;;;28.61;100.00
65054;BME280;51639;47.828;35.038;2023-07-08T02:59:07;99238.88;;;28.89;100.00
65054;BME280;51639;47.828;35.038;2023-07-08T03:14:09;99220.69;;;28.72;100.00
65054;BME280;51639;47.828;35.038;2023-07-08T03:29:14;99218.41;;;28.86;100.00
65054;BME280;51639;47.828;35.038;2023-07-08T03:44:17;99220.47;;;29.18;100.00
65054;BME280;51639;47.828;35.038;2023-07-08T03:59:19;99233.13;;;29.19;100.00
65054;BME280;51639;47.828;35.038;2023-07-08T04:14:21;99228.41;;;29.54;100.00
65054;BME280;51639;47.828;35.038;2023-07-08T04:29:23;99228.09;;;29.50;100.00
65054;BME280;51639;47.828;35.038;2023-07-08T04:44:26;99247.59;;;29.82;100.00
65054;BME280;51639;47.828;35.038;2023-07-08T04:59:29;99252.53;;;30.16;100.00
65054;BME280;51639;47.828;35.038;2023-07-08T05:14:36;99269.34;;;31.39;97.65
65054;BME280;51639;47.828;35.038;2023-07-08T05:29:38;99262.50;;;31.60;93.42
65054;BME280;51639;47.828;35.038;2023-07-08T05:44:40;99260.66;;;32.76;84.90
65054;BME280;51639;47.828;35.038;2023-07-08T05:59:42;99239.31;;;32.73;83.28
65054;BME280;51639;47.828;35.038;2023-07-08T06:14:47;99214.81;;;32.44;82.16
65054;BME280;51639;47.828;35.038;2023-07-08T06:29:49;99210.38;;;33.30;78.25
65054;BME280;51639;47.828;35.038;2023-07-08T06:44:51;99195.19;;;33.45;73.99
65054;BME280;51639;47.828;35.038;2023-07-08T06:59:54;99203.25;;;33.91;71.81
65054;BME280;51639;47.828;35.038;2023-07-08T07:14:56;99186.72;;;34.84;67.06
65054;BME280;51639;47.828;35.038;2023-07-08T07:29:58;99208.59;;;35.89;61.92
65054;BME280;51639;47.828;35.038;2023-07-08T07:45:01;99213.81;;;36.43;59.75
65054;BME280;51639;47.828;35.038;2023-07-08T08:00:03;99225.06;;;36.55;59.13
65054;BME280;51639;47.828;35.038;2023-07-08T08:15:06;99239.16;;;37.31;55.62
65054;BME280;51639;47.828;35.038;2023-07-08T08:30:08;99252.59;;;37.99;53.23
65054;BME280;51639;47.828;35.038;2023-07-08T08:45:14;99248.69;;;38.63;50.46
65054;BME280;51639;47.828;35.038;2023-07-08T09:00:24;99248.81;;;37.81;50.93
65054;BME280;51639;47.828;35.038;2023-07-08T09:15:27;99231.75;;;38.36;51.61
65054;BME280;51639;47.828;35.038;2023-07-08T09:30:29;99229.25;;;39.03;47.52
65054;BME280;51639;47.828;35.038;2023-07-08T09:45:46;99211.59;;;39.85;46.23
65054;BME280;51639;47.828;35.038;2023-07-08T10:00:54;99180.41;;;40.74;44.65
65054;BME280;51639;47.828;35.038;2023-07-08T10:16:14;99173.28;;;41.52;42.42
65054;BME280;51639;47.828;35.038;2023-07-08T11:33:33;99202.06;;;37.52;42.07
65054;BME280;51639;47.828;35.038;2023-07-08T11:48:42;99196.81;;;36.55;44.26
65054;BME280;51639;47.828;35.038;2023-07-08T12:03:51;99165.00;;;36.17;46.03
65054;BME280;51639;47.828;35.038;2023-07-08T12:18:54;99168.53;;;35.93;47.29
65054;BME280;51639;47.828;35.038;2023-07-08T12:33:58;99161.16;;;35.99;48.69
65054;BME280;51639;47.828;35.038;2023-07-08T12:49:01;99167.34;;;35.84;49.06
65054;BME280;51639;47.828;35.038;2023-07-08T13:04:06;99172.22;;;35.95;50.14
65054;BME280;51639;47.828;35.038;2023-07-08T13:19:12;99186.38;;;35.83;52.01
65054;BME280;51639;47.828;35.038;2023-07-08T13:34:17;99183.00;;;35.38;52.63
65054;BME280;51639;47.828;35.038;2023-07-08T13:49:39;99161.00;;;35.25;50.16
65054;BME280;51639;47.828;35.038;2023-07-08T14:04:43;99139.78;;;35.01;50.55
65054;BME280;51639;47.828;35.038;2023-07-08T14:19:45;99102.66;;;35.04;50.59
65054;BME280;51639;47.828;35.038;2023-07-08T14:34:54;99126.34;;;34.54;47.92
65054;BME280;51639;47.828;35.038;2023-07-08T14:49:58;99149.78;;;34.69;47.93
65054;BME280;51639;47.828;35.038;2023-07-08T15:05:01;99134.66;;;34.41;48.81
65054;BME280;51639;47.828;35.038;2023-07-08T15:20:09;99163.13;;;34.57;49.12
65054;BME280;51639;47.828;35.038;2023-07-08T15:35:17;99166.63;;;34.12;49.43
65054;BME280;51639;47.828;35.038;2023-07-08T15:50:22;99192.38;;;33.97;49.72
65054;BME280;51639;47.828;35.038;2023-07-08T16:05:25;99211.81;;;33.62;52.06
65054;BME280;51639;47.828;35.038;2023-07-08T16:20:29;99205.94;;;32.77;60.45
65054;BME280;51639;47.828;35.038;2023-07-08T16:35:31;99211.72;;;32.31;66.24
65054;BME280;51639;47.828;35.038;2023-07-08T16:50:33;99189.50;;;32.15;70.82
65054;BME280;51639;47.828;35.038;2023-07-08T17:05:36;99175.31;;;31.75;74.85
65054;BME280;51639;47.828;35.038;2023-07-08T17:20:38;99197.38;;;31.51;74.67
65054;BME280;51639;47.828;35.038;2023-07-08T17:35:40;99227.34;;;31.22;77.86
65054;BME280;51639;47.828;35.038;2023-07-08T17:50:42;99238.63;;;30.61;83.84
65054;BME280;51639;47.828;35.038;2023-07-08T18:05:44;99214.66;;;29.98;91.56
65054;BME280;51639;47.828;35.038;2023-07-08T18:20:51;99212.03;;;29.75;94.04
65054;BME280;51639;47.828;35.038;2023-07-08T18:35:54;99227.22;;;29.65;92.53
65054;BME280;51639;47.828;35.038;2023-07-08T18:50:55;99195.59;;;29.55;92.04
65054;BME280;51639;47.828;35.038;2023-07-08T19:05:59;99188.13;;;29.32;94.23
65054;BME280;51639;47.828;35.038;2023-07-08T19:21:01;99173.97;;;29.97;92.95
65054;BME280;51639;47.828;35.038;2023-07-08T19:36:03;99174.03;;;29.90;95.93
65054;BME280;51639;47.828;35.038;2023-07-08T19:51:07;99166.28;;;29.63;99.63
65054;BME280;51639;47.828;35.038;2023-07-08T20:06:09;99134.84;;;29.55;100.00
65054;BME280;51639;47.828;35.038;2023-07-08T20:21:12;99118.50;;;29.51;100.00
65054;BME280;51639;47.828;35.038;2023-07-08T20:36:17;99107.94;;;29.42;100.00
65054;BME280;51639;47.828;35.038;2023-07-08T20:51:20;99088.91;;;29.24;100.00
65054;BME280;51639;47.828;35.038;2023-07-08T21:06:24;99072.38;;;29.18;100.00
65054;BME280;51639;47.828;35.038;2023-07-08T21:21:27;99047.34;;;29.03;100.00
65054;BME280;51639;47.828;35.038;2023-07-08T21:36:32;99018.41;;;28.91;100.00
65054;BME280;51639;47.828;35.038;2023-07-08T21:51:39;99011.44;;;28.74;100.00
65054;BME280;51639;47.828;35.038;2023-07-08T22:06:41;98989.94;;;28.60;100.00
65054;BME280;51639;47.828;35.038;2023-07-08T22:21:43;99024.13;;;28.68;100.00
65054;BME280;51639;47.828;35.038;2023-07-08T22:36:45;99051.31;;;28.67;100.00
65054;BME280;51639;47.828;35.038;2023-07-08T22:51:49;99046.47;;;27.95;100.00
65054;BME280;51639;47.828;35.038;2023-07-08T23:06:53;98972.38;;;27.14;100.00
65054;BME280;51639;47.828;35.038;2023-07-08T23:21:55;98904.47;;;26.87;100.00
65054;BME280;51639;47.828;35.038;2023-07-08T23:36:57;98868.47;;;26.73;100.00
65054;BME280;51639;47.828;35.038;2023-07-08T23:52:08;98856.00;;;26.90;100.00
